createdAt,value
2019-01-30T00:04:11.172Z,1.17
2019-01-30T00:09:16.218Z,1.14
2019-01-30T00:14:21.709Z,1.09
2019-01-30T00:19:27.084Z,1.09
2019-01-30T00:24:33.906Z,1.09
2019-01-30T00:29:44.062Z,1.09
2019-01-30T00:34:49.368Z,1.05
2019-01-30T00:39:54.487Z,1.03
2019-01-30T00:44:59.577Z,0.98
2019-01-30T00:50:08.066Z,0.97
2019-01-30T00:55:13.380Z,0.93
2019-01-30T01:00:20.333Z,0.93
2019-01-30T01:05:25.387Z,0.89
2019-01-30T01:10:31.299Z,0.83
2019-01-30T01:15:36.510Z,0.81
2019-01-30T01:20:41.687Z,0.76
2019-01-30T01:25:46.837Z,0.73
2019-01-30T01:30:51.940Z,0.70
2019-01-30T01:35:59.675Z,0.67
2019-01-30T01:41:05.440Z,0.63
2019-01-30T01:46:10.645Z,0.59
2019-01-30T01:51:15.815Z,0.59
2019-01-30T01:56:20.946Z,0.53
2019-01-30T02:01:26.233Z,0.49
2019-01-30T02:06:31.474Z,0.43
2019-01-30T02:11:36.749Z,0.43
2019-01-30T02:16:42.244Z,0.44
2019-01-30T02:21:49.583Z,0.35
2019-01-30T02:26:54.875Z,0.32
2019-01-30T02:32:00.796Z,0.27
2019-01-30T02:37:05.800Z,0.19
2019-01-30T02:42:11.272Z,0.17
2019-01-30T02:47:16.363Z,0.13
2019-01-30T02:52:21.706Z,0.12
2019-01-30T02:57:26.759Z,0.16
2019-01-30T03:02:31.868Z,0.18
2019-01-30T03:07:39.262Z,0.17
2019-01-30T03:12:44.378Z,0.13
2019-01-30T03:17:49.593Z,0.12
2019-01-30T03:22:54.846Z,0.13
2019-01-30T03:28:01.688Z,0.17
2019-01-30T03:33:06.952Z,0.13
2019-01-30T03:38:11.967Z,0.11
2019-01-30T03:43:17.112Z,0.09
2019-01-30T03:48:22.257Z,0.11
2019-01-30T03:53:27.404Z,0.13
2019-01-30T03:58:32.680Z,0.13
2019-01-30T04:03:37.796Z,0.11
2019-01-30T04:08:43.031Z,0.05
2019-01-30T04:13:48.185Z,0.04
2019-01-30T04:18:53.334Z,-0.01
2019-01-30T04:24:00.543Z,0.01
2019-01-30T04:29:08.154Z,0.03
2019-01-30T04:34:16.144Z,0.06
2019-01-30T04:39:23.170Z,0.09
2019-01-30T04:44:29.070Z,0.03
2019-01-30T04:49:34.612Z,-0.01
2019-01-30T04:54:43.799Z,0.01
2019-01-30T04:59:51.107Z,-0.02
2019-01-30T05:04:57.764Z,0.00
2019-01-30T05:10:08.162Z,0.00
2019-01-30T05:15:32.550Z,0.05
2019-01-30T05:20:40.430Z,0.04
2019-01-30T05:25:47.972Z,0.01
2019-01-30T05:30:53.904Z,0.02
2019-01-30T05:36:00.100Z,0.03
2019-01-30T05:41:05.608Z,-0.01
2019-01-30T05:46:11.400Z,0.04
2019-01-30T05:51:17.410Z,-0.02
2019-01-30T05:56:26.397Z,-0.06
2019-01-30T06:01:39.219Z,-0.06
2019-01-30T06:06:50.574Z,-0.08
2019-01-30T06:11:59.475Z,-0.09
2019-01-30T06:17:09.727Z,-0.14
2019-01-30T06:22:15.571Z,-0.13
2019-01-30T06:27:22.639Z,-0.16
2019-01-30T06:32:30.225Z,-0.17
2019-01-30T06:37:37.273Z,-0.17
2019-01-30T06:42:42.500Z,-0.18
2019-01-30T06:47:48.589Z,-0.17
2019-01-30T06:52:54.971Z,-0.13
2019-01-30T06:57:59.943Z,-0.12
2019-01-30T07:03:05.168Z,-0.07
2019-01-30T07:08:10.207Z,-0.06
2019-01-30T07:13:15.497Z,-0.05
2019-01-30T07:18:20.524Z,-0.06
2019-01-30T07:23:26.063Z,-0.04
2019-01-30T07:28:31.264Z,0.07
2019-01-30T07:33:37.046Z,0.17
2019-01-30T07:38:42.372Z,0.20
2019-01-30T07:43:47.720Z,0.24
2019-01-30T07:48:53.308Z,0.33
2019-01-30T07:53:58.489Z,0.47
2019-01-30T07:59:03.818Z,0.50
2019-01-30T08:04:08.884Z,0.53
2019-01-30T08:09:15.270Z,0.59
2019-01-30T08:14:20.442Z,0.68
2019-01-30T08:19:26.195Z,0.75
2019-01-30T08:24:31.765Z,0.76
2019-01-30T08:29:37.603Z,0.83
2019-01-30T08:34:43.251Z,0.81
2019-01-30T08:39:48.766Z,0.84
2019-01-30T08:44:54.136Z,0.96
2019-01-30T08:49:59.543Z,1.04
2019-01-30T08:55:05.558Z,1.15
2019-01-30T09:00:13.946Z,1.32
2019-01-30T09:05:19.362Z,1.41
2019-01-30T09:10:25.443Z,1.48
2019-01-30T09:15:30.673Z,1.57
2019-01-30T09:20:36.224Z,1.71
2019-01-30T09:25:41.486Z,1.81
2019-01-30T09:30:46.724Z,1.83
2019-01-30T09:35:51.976Z,1.89
2019-01-30T09:40:57.248Z,1.87
2019-01-30T09:46:02.646Z,2.09
2019-01-30T09:51:07.903Z,2.26
2019-01-30T09:56:15.491Z,2.44
2019-01-30T10:01:20.076Z,2.51
2019-01-30T10:06:25.428Z,2.46
2019-01-30T10:11:30.848Z,2.58
2019-01-30T10:16:36.670Z,2.71
2019-01-30T10:21:47.251Z,2.83
2019-01-30T10:26:54.623Z,2.86
2019-01-30T10:32:00.080Z,3.07
2019-01-30T10:37:05.723Z,3.13
2019-01-30T10:42:10.881Z,3.18
2019-01-30T10:47:18.034Z,3.33
2019-01-30T10:52:23.863Z,3.34
2019-01-30T10:57:29.176Z,3.57
2019-01-30T11:02:36.543Z,3.91
2019-01-30T11:07:41.855Z,4.21
2019-01-30T11:12:47.605Z,4.05
2019-01-30T11:17:59.213Z,4.18
2019-01-30T11:23:05.579Z,4.70
2019-01-30T11:28:11.521Z,5.31
2019-01-30T11:33:17.237Z,5.91
2019-01-30T11:38:22.540Z,6.99
2019-01-30T11:43:28.249Z,8.48
2019-01-30T11:48:33.903Z,9.26
2019-01-30T11:53:39.645Z,10.01
2019-01-30T11:58:46.510Z,10.49
2019-01-30T12:03:51.859Z,10.36
2019-01-30T12:08:57.497Z,11.03
2019-01-30T12:14:04.027Z,10.43
2019-01-30T12:19:09.321Z,9.91
2019-01-30T12:24:15.051Z,9.41
2019-01-30T12:29:20.505Z,8.24
2019-01-30T12:34:28.404Z,7.59
2019-01-30T12:39:37.763Z,7.11
2019-01-30T12:44:43.231Z,6.66
2019-01-30T12:49:48.941Z,6.12
2019-01-30T12:54:55.043Z,5.74
2019-01-30T13:00:07.277Z,5.29
2019-01-30T13:05:12.883Z,4.81
2019-01-30T13:10:20.054Z,4.47
2019-01-30T13:15:26.707Z,4.17
2019-01-30T13:20:32.119Z,4.00
2019-01-30T13:25:37.952Z,3.85
2019-01-30T13:30:44.961Z,3.68
2019-01-30T13:35:50.606Z,3.55
2019-01-30T13:40:55.959Z,3.56
2019-01-30T13:46:05.422Z,3.55
2019-01-30T13:51:17.995Z,3.57
2019-01-30T13:56:23.760Z,3.62
2019-01-30T14:01:29.593Z,3.75
2019-01-30T14:06:36.316Z,3.82
2019-01-30T14:11:47.091Z,3.85
2019-01-30T14:16:52.409Z,3.93
2019-01-30T14:22:09.542Z,3.95
2019-01-30T14:27:15.783Z,3.92
2019-01-30T14:32:21.191Z,3.92
2019-01-30T14:37:26.942Z,3.96
2019-01-30T14:42:32.195Z,4.01
2019-01-30T14:47:38.007Z,4.03
2019-01-30T14:52:44.360Z,4.11
2019-01-30T14:57:51.906Z,4.00
2019-01-30T15:03:00.388Z,3.99
2019-01-30T15:08:06.162Z,3.94
2019-01-30T15:13:12.479Z,3.80
2019-01-30T15:18:18.795Z,3.65
2019-01-30T15:23:25.577Z,3.53
2019-01-30T15:28:30.773Z,3.44
2019-01-30T15:33:37.102Z,3.32
2019-01-30T15:38:42.371Z,3.22
2019-01-30T15:43:47.683Z,3.19
2019-01-30T15:48:53.010Z,3.13
2019-01-30T15:53:58.279Z,3.13
2019-01-30T15:59:05.985Z,3.09
2019-01-30T16:04:11.557Z,3.11
2019-01-30T16:09:16.788Z,3.12
2019-01-30T16:14:22.313Z,3.15
2019-01-30T16:19:27.856Z,3.13
2019-01-30T16:24:33.081Z,3.09
2019-01-30T16:29:38.379Z,3.03
2019-01-30T16:34:43.981Z,3.01
2019-01-30T16:39:49.179Z,3.03
2019-01-30T16:44:56.129Z,3.03
2019-01-30T16:50:02.093Z,3.06
2019-01-30T16:55:07.499Z,3.02
2019-01-30T17:00:24.597Z,2.99
2019-01-30T17:05:30.805Z,3.01
2019-01-30T17:10:36.076Z,3.01
2019-01-30T17:15:41.669Z,3.00
2019-01-30T17:20:47.299Z,2.97
2019-01-30T17:25:52.862Z,2.97
2019-01-30T17:31:13.745Z,2.98
2019-01-30T17:36:19.757Z,3.02
2019-01-30T17:41:25.167Z,2.92
2019-01-30T17:46:31.049Z,2.92
2019-01-30T17:51:36.260Z,2.94
2019-01-30T17:56:41.687Z,2.92
2019-01-30T18:01:47.416Z,2.96
2019-01-30T18:06:52.975Z,2.97
2019-01-30T18:11:58.251Z,2.96
2019-01-30T18:17:03.585Z,2.95
2019-01-30T18:22:09.155Z,2.94
2019-01-30T18:27:14.591Z,2.96
2019-01-30T18:32:20.573Z,3.00
2019-01-30T18:37:26.362Z,2.99
2019-01-30T18:42:36.343Z,3.03
2019-01-30T18:47:41.877Z,3.12
2019-01-30T18:52:47.359Z,3.13
2019-01-30T18:57:52.705Z,3.08
2019-01-30T19:02:59.463Z,3.11
2019-01-30T19:08:05.085Z,3.12
2019-01-30T19:13:10.947Z,3.15
2019-01-30T19:18:37.443Z,3.23
2019-01-30T19:23:43.823Z,3.20
2019-01-30T19:28:52.078Z,3.19
2019-01-30T19:33:57.842Z,3.17
2019-01-30T19:39:04.039Z,3.20
2019-01-30T19:44:13.729Z,3.25
2019-01-30T19:49:21.525Z,3.26
2019-01-30T19:54:28.399Z,3.29
2019-01-30T19:59:33.579Z,3.33
2019-01-30T20:04:38.909Z,3.30
2019-01-30T20:09:51.835Z,3.35
2019-01-30T20:14:58.643Z,3.35
2019-01-30T20:20:04.747Z,3.33
2019-01-30T20:25:14.031Z,3.27
2019-01-30T20:30:21.097Z,3.30
2019-01-30T20:35:26.492Z,3.31
2019-01-30T20:40:47.246Z,3.32
2019-01-30T20:45:54.651Z,3.33
2019-01-30T20:51:00.522Z,3.34
2019-01-30T20:56:06.552Z,3.37
2019-01-30T21:01:12.565Z,3.38
2019-01-30T21:06:18.100Z,3.31
2019-01-30T21:11:23.401Z,3.34
2019-01-30T21:16:28.711Z,3.26
2019-01-30T21:21:39.096Z,3.22
2019-01-30T21:26:44.536Z,3.32
2019-01-30T21:31:50.265Z,3.31
2019-01-30T21:36:55.553Z,3.33
2019-01-30T21:42:08.717Z,3.35
2019-01-30T21:47:15.849Z,3.36
2019-01-30T21:52:23.973Z,3.32
2019-01-30T21:57:29.190Z,3.45
2019-01-30T22:02:37.585Z,3.42
2019-01-30T22:07:45.863Z,3.41
2019-01-30T22:12:53.447Z,3.43
2019-01-30T22:17:58.673Z,3.47
2019-01-30T22:23:05.424Z,3.49
2019-01-30T22:28:10.783Z,3.42
2019-01-30T22:33:18.897Z,3.39
2019-01-30T22:38:23.985Z,3.41
2019-01-30T22:43:29.291Z,3.35
2019-01-30T22:48:34.776Z,3.41
2019-01-30T22:53:42.681Z,3.40
2019-01-30T22:58:49.065Z,3.38
2019-01-30T23:04:42.063Z,3.37
2019-01-30T23:10:22.091Z,3.29
2019-01-30T23:15:49.222Z,3.29
2019-01-30T23:21:00.311Z,3.31
2019-01-30T23:26:18.924Z,3.25
2019-01-30T23:32:23.861Z,3.19
2019-01-30T23:38:03.400Z,3.22
2019-01-30T23:43:17.400Z,3.15
2019-01-30T23:49:10.838Z,3.19
2019-01-30T23:55:04.017Z,3.18
